sensor_id;sensor_type;location;lat;lon;timestamp;temperature;humidity
77865;DHT22;67061;48.524;9.040;2023-06-26T00:01:30;17.20;74.40
77865;DHT22;67061;48.524;9.040;2023-06-26T00:03:57;17.20;75.10
77865;DHT22;67061;48.524;9.040;2023-06-26T00:06:24;17.00;75.50
77865;DHT22;67061;48.524;9.040;2023-06-26T00:08:52;17.00;76.40
77865;DHT22;67061;48.524;9.040;2023-06-26T00:11:19;17.00;76.00
77865;DHT22;67061;48.524;9.040;2023-06-26T00:13:46;16.90;75.60
77865;DHT22;67061;48.524;9.040;2023-06-26T00:16:15;16.90;76.10
77865;DHT22;67061;48.524;9.040;2023-06-26T00:18:42;16.90;76.30
77865;DHT22;67061;48.524;9.040;2023-06-26T00:21:08;16.90;76.70
77865;DHT22;67061;48.524;9.040;2023-06-26T00:23:35;16.80;76.60
77865;DHT22;67061;48.524;9.040;2023-06-26T00:26:03;16.70;77.10
77865;DHT22;67061;48.524;9.040;2023-06-26T00:28:30;16.60;77.00
77865;DHT22;67061;48.524;9.040;2023-06-26T00:30:57;16.40;77.50
77865;DHT22;67061;48.524;9.040;2023-06-26T00:33:25;16.40;78.20
77865;DHT22;67061;48.524;9.040;2023-06-26T00:35:52;16.40;77.50
77865;DHT22;67061;48.524;9.040;2023-06-26T00:38:19;16.40;78.00
77865;DHT22;67061;48.524;9.040;2023-06-26T00:40:46;16.30;77.90
77865;DHT22;67061;48.524;9.040;2023-06-26T00:43:14;16.20;78.60
77865;DHT22;67061;48.524;9.040;2023-06-26T00:45:41;16.10;79.70
77865;DHT22;67061;48.524;9.040;2023-06-26T00:48:09;16.00;79.00
77865;DHT22;67061;48.524;9.040;2023-06-26T00:50:39;16.00;80.50
77865;DHT22;67061;48.524;9.040;2023-06-26T00:53:06;16.00;79.40
77865;DHT22;67061;48.524;9.040;2023-06-26T00:55:32;16.00;79.50
77865;DHT22;67061;48.524;9.040;2023-06-26T00:57:59;16.00;80.50
77865;DHT22;67061;48.524;9.040;2023-06-26T01:00:26;16.00;80.80
77865;DHT22;67061;48.524;9.040;2023-06-26T01:02:53;16.00;80.30
77865;DHT22;67061;48.524;9.040;2023-06-26T01:05:21;16.00;80.20
77865;DHT22;67061;48.524;9.040;2023-06-26T01:07:50;15.90;80.80
77865;DHT22;67061;48.524;9.040;2023-06-26T01:10:17;15.80;81.10
77865;DHT22;67061;48.524;9.040;2023-06-26T01:12:45;15.80;81.50
77865;DHT22;67061;48.524;9.040;2023-06-26T01:15:12;15.70;81.60
77865;DHT22;67061;48.524;9.040;2023-06-26T01:17:39;15.60;81.80
77865;DHT22;67061;48.524;9.040;2023-06-26T01:20:11;15.60;82.10
77865;DHT22;67061;48.524;9.040;2023-06-26T01:22:45;15.60;82.10
77865;DHT22;67061;48.524;9.040;2023-06-26T01:25:23;15.60;81.50
77865;DHT22;67061;48.524;9.040;2023-06-26T01:27:55;15.50;81.80
77865;DHT22;67061;48.524;9.040;2023-06-26T01:30:23;15.50;83.10
77865;DHT22;67061;48.524;9.040;2023-06-26T01:32:50;15.50;82.50
77865;DHT22;67061;48.524;9.040;2023-06-26T01:35:18;15.40;82.90
77865;DHT22;67061;48.524;9.040;2023-06-26T01:37:45;15.40;83.10
77865;DHT22;67061;48.524;9.040;2023-06-26T01:40:12;15.30;83.30
77865;DHT22;67061;48.524;9.040;2023-06-26T01:42:39;15.20;83.20
77865;DHT22;67061;48.524;9.040;2023-06-26T01:45:12;15.20;83.30
77865;DHT22;67061;48.524;9.040;2023-06-26T01:47:44;15.20;84.00
77865;DHT22;67061;48.524;9.040;2023-06-26T01:50:18;15.10;83.10
77865;DHT22;67061;48.524;9.040;2023-06-26T01:52:53;15.10;83.50
77865;DHT22;67061;48.524;9.040;2023-06-26T01:55:23;15.00;84.20
77865;DHT22;67061;48.524;9.040;2023-06-26T01:57:54;15.10;84.70
77865;DHT22;67061;48.524;9.040;2023-06-26T02:00:24;15.00;85.20
77865;DHT22;67061;48.524;9.040;2023-06-26T02:02:52;15.00;84.00
77865;DHT22;67061;48.524;9.040;2023-06-26T02:05:19;15.00;84.20
77865;DHT22;67061;48.524;9.040;2023-06-26T02:07:46;15.00;85.20
77865;DHT22;67061;48.524;9.040;2023-06-26T02:10:13;15.00;85.30
77865;DHT22;67061;48.524;9.040;2023-06-26T02:12:40;15.00;84.70
77865;DHT22;67061;48.524;9.040;2023-06-26T02:15:08;15.00;85.30
77865;DHT22;67061;48.524;9.040;2023-06-26T02:17:36;15.00;85.40
77865;DHT22;67061;48.524;9.040;2023-06-26T02:20:04;14.90;85.30
77865;DHT22;67061;48.524;9.040;2023-06-26T02:22:34;14.80;85.40
77865;DHT22;67061;48.524;9.040;2023-06-26T02:25:01;14.70;86.20
77865;DHT22;67061;48.524;9.040;2023-06-26T02:27:28;14.60;86.10
77865;DHT22;67061;48.524;9.040;2023-06-26T02:29:55;14.60;85.60
77865;DHT22;67061;48.524;9.040;2023-06-26T02:32:22;14.60;87.20
77865;DHT22;67061;48.524;9.040;2023-06-26T02:34:50;14.60;86.90
77865;DHT22;67061;48.524;9.040;2023-06-26T02:37:18;14.50;86.00
77865;DHT22;67061;48.524;9.040;2023-06-26T02:39:45;14.50;85.80
77865;DHT22;67061;48.524;9.040;2023-06-26T02:42:12;14.50;85.90
77865;DHT22;67061;48.524;9.040;2023-06-26T02:44:38;14.50;86.50
77865;DHT22;67061;48.524;9.040;2023-06-26T02:47:05;14.50;86.60
77865;DHT22;67061;48.524;9.040;2023-06-26T02:49:32;14.40;86.70
77865;DHT22;67061;48.524;9.040;2023-06-26T02:52:01;14.20;87.10
77865;DHT22;67061;48.524;9.040;2023-06-26T02:54:27;14.20;88.00
77865;DHT22;67061;48.524;9.040;2023-06-26T02:56:54;14.10;88.50
77865;DHT22;67061;48.524;9.040;2023-06-26T02:59:22;13.90;87.80
77865;DHT22;67061;48.524;9.040;2023-06-26T03:01:48;13.90;88.40
77865;DHT22;67061;48.524;9.040;2023-06-26T03:04:15;13.90;89.20
77865;DHT22;67061;48.524;9.040;2023-06-26T03:06:43;13.90;89.00
77865;DHT22;67061;48.524;9.040;2023-06-26T03:09:11;13.90;88.60
77865;DHT22;67061;48.524;9.040;2023-06-26T03:11:38;13.90;88.80
77865;DHT22;67061;48.524;9.040;2023-06-26T03:14:05;13.90;88.80
77865;DHT22;67061;48.524;9.040;2023-06-26T03:16:32;13.90;89.00
77865;DHT22;67061;48.524;9.040;2023-06-26T03:18:59;13.80;88.80
77865;DHT22;67061;48.524;9.040;2023-06-26T03:21:25;13.80;88.70
77865;DHT22;67061;48.524;9.040;2023-06-26T03:23:52;13.80;89.40
77865;DHT22;67061;48.524;9.040;2023-06-26T03:26:21;13.80;89.10
77865;DHT22;67061;48.524;9.040;2023-06-26T03:28:54;13.80;89.20
77865;DHT22;67061;48.524;9.040;2023-06-26T03:31:20;13.80;90.10
77865;DHT22;67061;48.524;9.040;2023-06-26T03:33:47;13.90;89.40
77865;DHT22;67061;48.524;9.040;2023-06-26T03:36:14;13.90;90.80
77865;DHT22;67061;48.524;9.040;2023-06-26T03:38:41;13.90;89.70
77865;DHT22;67061;48.524;9.040;2023-06-26T03:41:08;14.00;89.50
77865;DHT22;67061;48.524;9.040;2023-06-26T03:43:36;14.00;88.50
77865;DHT22;67061;48.524;9.040;2023-06-26T03:46:03;14.00;89.40
77865;DHT22;67061;48.524;9.040;2023-06-26T03:48:30;14.00;89.30
77865;DHT22;67061;48.524;9.040;2023-06-26T03:50:57;14.00;89.80
77865;DHT22;67061;48.524;9.040;2023-06-26T03:53:24;14.00;89.30
77865;DHT22;67061;48.524;9.040;2023-06-26T03:55:51;14.00;89.00
77865;DHT22;67061;48.524;9.040;2023-06-26T03:58:18;14.00;88.80
77865;DHT22;67061;48.524;9.040;2023-06-26T04:00:46;14.00;88.60
77865;DHT22;67061;48.524;9.040;2023-06-26T04:03:13;14.10;89.40
77865;DHT22;67061;48.524;9.040;2023-06-26T04:05:40;14.10;89.40
77865;DHT22;67061;48.524;9.040;2023-06-26T04:08:07;14.10;89.00
77865;DHT22;67061;48.524;9.040;2023-06-26T04:10:34;14.10;88.90
77865;DHT22;67061;48.524;9.040;2023-06-26T04:13:02;14.10;88.40
77865;DHT22;67061;48.524;9.040;2023-06-26T04:15:29;14.10;88.40
77865;DHT22;67061;48.524;9.040;2023-06-26T04:17:57;14.10;88.70
77865;DHT22;67061;48.524;9.040;2023-06-26T04:20:24;14.20;88.40
77865;DHT22;67061;48.524;9.040;2023-06-26T04:22:51;14.20;88.20
77865;DHT22;67061;48.524;9.040;2023-06-26T04:25:18;14.30;88.70
77865;DHT22;67061;48.524;9.040;2023-06-26T04:27:44;14.30;88.50
77865;DHT22;67061;48.524;9.040;2023-06-26T04:30:13;14.40;88.70
77865;DHT22;67061;48.524;9.040;2023-06-26T04:32:39;14.40;88.00
77865;DHT22;67061;48.524;9.040;2023-06-26T04:35:08;14.40;88.50
77865;DHT22;67061;48.524;9.040;2023-06-26T04:37:35;14.50;88.00
77865;DHT22;67061;48.524;9.040;2023-06-26T04:40:04;14.50;88.00
77865;DHT22;67061;48.524;9.040;2023-06-26T04:42:32;14.60;88.20
77865;DHT22;67061;48.524;9.040;2023-06-26T04:44:59;14.60;88.70
77865;DHT22;67061;48.524;9.040;2023-06-26T04:47:27;14.70;87.60
77865;DHT22;67061;48.524;9.040;2023-06-26T04:49:54;14.70;87.20
77865;DHT22;67061;48.524;9.040;2023-06-26T04:52:23;14.70;87.40
77865;DHT22;67061;48.524;9.040;2023-06-26T04:54:50;14.80;87.20
77865;DHT22;67061;48.524;9.040;2023-06-26T04:57:17;14.90;86.60
77865;DHT22;67061;48.524;9.040;2023-06-26T04:59:44;15.00;86.80
77865;DHT22;67061;48.524;9.040;2023-06-26T05:02:11;15.00;86.90
77865;DHT22;67061;48.524;9.040;2023-06-26T05:04:40;15.10;86.20
77865;DHT22;67061;48.524;9.040;2023-06-26T05:07:08;15.20;85.90
77865;DHT22;67061;48.524;9.040;2023-06-26T05:09:36;15.40;85.70
77865;DHT22;67061;48.524;9.040;2023-06-26T05:12:03;15.50;85.50
77865;DHT22;67061;48.524;9.040;2023-06-26T05:14:30;15.60;85.30
77865;DHT22;67061;48.524;9.040;2023-06-26T05:16:57;15.60;85.10
77865;DHT22;67061;48.524;9.040;2023-06-26T05:19:24;15.70;84.90
77865;DHT22;67061;48.524;9.040;2023-06-26T05:21:52;15.80;84.90
77865;DHT22;67061;48.524;9.040;2023-06-26T05:24:19;15.90;84.20
77865;DHT22;67061;48.524;9.040;2023-06-26T05:26:48;16.00;84.30
77865;DHT22;67061;48.524;9.040;2023-06-26T05:29:16;16.20;83.50
77865;DHT22;67061;48.524;9.040;2023-06-26T05:31:44;16.40;83.30
77865;DHT22;67061;48.524;9.040;2023-06-26T05:34:13;16.50;83.20
77865;DHT22;67061;48.524;9.040;2023-06-26T05:36:41;16.60;82.40
77865;DHT22;67061;48.524;9.040;2023-06-26T05:39:09;16.80;82.20
77865;DHT22;67061;48.524;9.040;2023-06-26T05:41:36;17.00;81.60
77865;DHT22;67061;48.524;9.040;2023-06-26T05:44:05;17.20;81.00
77865;DHT22;67061;48.524;9.040;2023-06-26T05:46:31;17.40;80.00
77865;DHT22;67061;48.524;9.040;2023-06-26T05:48:58;17.50;79.30
77865;DHT22;67061;48.524;9.040;2023-06-26T05:51:27;17.60;79.20
77865;DHT22;67061;48.524;9.040;2023-06-26T05:53:54;17.60;78.50
77865;DHT22;67061;48.524;9.040;2023-06-26T05:56:21;17.70;78.20
77865;DHT22;67061;48.524;9.040;2023-06-26T05:58:50;17.80;77.60
77865;DHT22;67061;48.524;9.040;2023-06-26T06:01:18;18.00;77.00
77865;DHT22;67061;48.524;9.040;2023-06-26T06:03:45;18.10;75.70
77865;DHT22;67061;48.524;9.040;2023-06-26T06:06:12;18.30;74.60
77865;DHT22;67061;48.524;9.040;2023-06-26T06:08:39;18.50;74.20
77865;DHT22;67061;48.524;9.040;2023-06-26T06:11:06;18.60;74.20
77865;DHT22;67061;48.524;9.040;2023-06-26T06:13:33;18.70;74.70
77865;DHT22;67061;48.524;9.040;2023-06-26T06:16:00;18.80;74.20
77865;DHT22;67061;48.524;9.040;2023-06-26T06:18:28;19.00;73.90
77865;DHT22;67061;48.524;9.040;2023-06-26T06:20:55;19.20;73.50
77865;DHT22;67061;48.524;9.040;2023-06-26T06:23:22;19.30;72.10
77865;DHT22;67061;48.524;9.040;2023-06-26T06:25:49;19.40;70.60
77865;DHT22;67061;48.524;9.040;2023-06-26T06:28:16;19.50;69.90
77865;DHT22;67061;48.524;9.040;2023-06-26T06:30:43;19.70;69.60
77865;DHT22;67061;48.524;9.040;2023-06-26T06:33:10;19.90;69.20
77865;DHT22;67061;48.524;9.040;2023-06-26T06:35:38;20.00;68.70
77865;DHT22;67061;48.524;9.040;2023-06-26T06:38:05;20.30;67.10
77865;DHT22;67061;48.524;9.040;2023-06-26T06:40:32;20.40;66.50
77865;DHT22;67061;48.524;9.040;2023-06-26T06:42:59;20.50;66.50
77865;DHT22;67061;48.524;9.040;2023-06-26T06:45:26;20.60;66.30
77865;DHT22;67061;48.524;9.040;2023-06-26T06:47:52;20.80;66.30
77865;DHT22;67061;48.524;9.040;2023-06-26T06:50:19;20.90;66.40
77865;DHT22;67061;48.524;9.040;2023-06-26T06:52:48;21.10;65.60
77865;DHT22;67061;48.524;9.040;2023-06-26T06:55:15;21.30;64.90
77865;DHT22;67061;48.524;9.040;2023-06-26T06:57:41;21.40;63.70
77865;DHT22;67061;48.524;9.040;2023-06-26T07:00:10;21.50;63.60
77865;DHT22;67061;48.524;9.040;2023-06-26T07:02:38;21.60;63.60
77865;DHT22;67061;48.524;9.040;2023-06-26T07:05:06;21.70;63.30
77865;DHT22;67061;48.524;9.040;2023-06-26T07:07:34;21.70;63.00
77865;DHT22;67061;48.524;9.040;2023-06-26T07:10:05;21.80;62.80
77865;DHT22;67061;48.524;9.040;2023-06-26T07:12:33;21.90;62.60
77865;DHT22;67061;48.524;9.040;2023-06-26T07:15:00;22.20;61.60
77865;DHT22;67061;48.524;9.040;2023-06-26T07:17:28;22.50;60.80
77865;DHT22;67061;48.524;9.040;2023-06-26T07:19:55;22.60;60.60
77865;DHT22;67061;48.524;9.040;2023-06-26T07:22:22;22.70;59.40
77865;DHT22;67061;48.524;9.040;2023-06-26T07:24:49;22.80;58.80
77865;DHT22;67061;48.524;9.040;2023-06-26T07:27:18;23.00;58.70
77865;DHT22;67061;48.524;9.040;2023-06-26T07:29:45;23.10;59.00
77865;DHT22;67061;48.524;9.040;2023-06-26T07:32:11;23.20;59.00
77865;DHT22;67061;48.524;9.040;2023-06-26T07:34:39;23.30;58.80
77865;DHT22;67061;48.524;9.040;2023-06-26T07:37:06;23.40;58.20
77865;DHT22;67061;48.524;9.040;2023-06-26T07:39:33;23.60;57.20
77865;DHT22;67061;48.524;9.040;2023-06-26T07:42:00;23.80;56.60
77865;DHT22;67061;48.524;9.040;2023-06-26T07:44:29;24.00;55.90
77865;DHT22;67061;48.524;9.040;2023-06-26T07:46:55;24.20;55.40
77865;DHT22;67061;48.524;9.040;2023-06-26T07:49:22;24.40;54.70
77865;DHT22;67061;48.524;9.040;2023-06-26T07:51:49;24.50;54.20
77865;DHT22;67061;48.524;9.040;2023-06-26T07:54:16;24.60;54.10
77865;DHT22;67061;48.524;9.040;2023-06-26T07:56:54;24.70;52.90
77865;DHT22;67061;48.524;9.040;2023-06-26T07:59:21;24.90;52.20
77865;DHT22;67061;48.524;9.040;2023-06-26T08:01:50;25.00;53.10
77865;DHT22;67061;48.524;9.040;2023-06-26T08:04:18;25.10;51.20
77865;DHT22;67061;48.524;9.040;2023-06-26T08:06:45;25.30;51.00
77865;DHT22;67061;48.524;9.040;2023-06-26T08:09:12;25.50;50.70
77865;DHT22;67061;48.524;9.040;2023-06-26T08:11:39;25.60;51.20
77865;DHT22;67061;48.524;9.040;2023-06-26T08:14:06;25.70;50.70
77865;DHT22;67061;48.524;9.040;2023-06-26T08:16:33;25.80;51.00
77865;DHT22;67061;48.524;9.040;2023-06-26T08:19:01;25.90;49.60
77865;DHT22;67061;48.524;9.040;2023-06-26T08:21:28;26.10;49.80
77865;DHT22;67061;48.524;9.040;2023-06-26T08:23:55;26.30;47.90
77865;DHT22;67061;48.524;9.040;2023-06-26T08:26:22;26.40;47.50
77865;DHT22;67061;48.524;9.040;2023-06-26T08:28:49;26.50;47.60
77865;DHT22;67061;48.524;9.040;2023-06-26T08:31:16;26.60;47.30
77865;DHT22;67061;48.524;9.040;2023-06-26T08:33:43;26.70;45.90
77865;DHT22;67061;48.524;9.040;2023-06-26T08:36:12;26.80;46.30
77865;DHT22;67061;48.524;9.040;2023-06-26T08:38:39;26.80;47.00
77865;DHT22;67061;48.524;9.040;2023-06-26T08:41:06;26.80;45.50
77865;DHT22;67061;48.524;9.040;2023-06-26T08:43:34;26.90;45.70
77865;DHT22;67061;48.524;9.040;2023-06-26T08:46:02;27.20;44.20
77865;DHT22;67061;48.524;9.040;2023-06-26T08:48:31;27.20;45.50
77865;DHT22;67061;48.524;9.040;2023-06-26T08:51:01;27.20;45.60
77865;DHT22;67061;48.524;9.040;2023-06-26T08:53:40;27.30;45.80
77865;DHT22;67061;48.524;9.040;2023-06-26T08:56:08;27.50;45.30
77865;DHT22;67061;48.524;9.040;2023-06-26T08:58:36;27.70;45.00
77865;DHT22;67061;48.524;9.040;2023-06-26T09:01:04;27.70;44.50
77865;DHT22;67061;48.524;9.040;2023-06-26T09:03:32;27.70;43.70
77865;DHT22;67061;48.524;9.040;2023-06-26T09:05:59;27.90;42.30
77865;DHT22;67061;48.524;9.040;2023-06-26T09:08:26;28.00;41.70
77865;DHT22;67061;48.524;9.040;2023-06-26T09:10:54;28.00;42.10
77865;DHT22;67061;48.524;9.040;2023-06-26T09:13:21;28.00;41.50
77865;DHT22;67061;48.524;9.040;2023-06-26T09:15:48;28.10;41.00
77865;DHT22;67061;48.524;9.040;2023-06-26T09:18:17;28.10;41.50
77865;DHT22;67061;48.524;9.040;2023-06-26T09:20:45;28.20;41.50
77865;DHT22;67061;48.524;9.040;2023-06-26T09:23:12;28.20;42.50
77865;DHT22;67061;48.524;9.040;2023-06-26T09:25:40;28.30;41.70
77865;DHT22;67061;48.524;9.040;2023-06-26T09:28:10;28.50;42.20
77865;DHT22;67061;48.524;9.040;2023-06-26T09:30:36;28.60;41.30
77865;DHT22;67061;48.524;9.040;2023-06-26T09:33:13;28.70;41.30
77865;DHT22;67061;48.524;9.040;2023-06-26T09:35:40;28.80;41.00
77865;DHT22;67061;48.524;9.040;2023-06-26T09:38:07;28.90;40.90
77865;DHT22;67061;48.524;9.040;2023-06-26T09:40:34;28.90;41.10
77865;DHT22;67061;48.524;9.040;2023-06-26T09:43:04;28.90;40.50
77865;DHT22;67061;48.524;9.040;2023-06-26T09:45:32;28.90;40.40
77865;DHT22;67061;48.524;9.040;2023-06-26T09:48:00;28.90;40.70
77865;DHT22;67061;48.524;9.040;2023-06-26T09:50:28;28.90;41.50
77865;DHT22;67061;48.524;9.040;2023-06-26T09:52:57;28.80;40.10
77865;DHT22;67061;48.524;9.040;2023-06-26T09:55:25;28.70;38.80
77865;DHT22;67061;48.524;9.040;2023-06-26T09:57:52;28.70;40.10
77865;DHT22;67061;48.524;9.040;2023-06-26T10:00:23;28.70;40.50
77865;DHT22;67061;48.524;9.040;2023-06-26T10:02:51;28.90;40.60
77865;DHT22;67061;48.524;9.040;2023-06-26T10:05:18;29.00;38.60
77865;DHT22;67061;48.524;9.040;2023-06-26T10:07:46;29.10;39.70
77865;DHT22;67061;48.524;9.040;2023-06-26T10:10:16;29.10;36.60
77865;DHT22;67061;48.524;9.040;2023-06-26T10:12:45;29.20;38.00
77865;DHT22;67061;48.524;9.040;2023-06-26T10:15:15;29.20;37.20
77865;DHT22;67061;48.524;9.040;2023-06-26T10:17:43;29.30;37.30
77865;DHT22;67061;48.524;9.040;2023-06-26T10:20:14;29.50;38.00
77865;DHT22;67061;48.524;9.040;2023-06-26T10:22:44;29.70;36.30
77865;DHT22;67061;48.524;9.040;2023-06-26T10:25:14;29.80;36.10
77865;DHT22;67061;48.524;9.040;2023-06-26T10:27:45;30.00;36.50
77865;DHT22;67061;48.524;9.040;2023-06-26T10:30:16;30.00;36.00
77865;DHT22;67061;48.524;9.040;2023-06-26T10:32:45;29.90;36.50
77865;DHT22;67061;48.524;9.040;2023-06-26T10:35:14;29.80;36.70
77865;DHT22;67061;48.524;9.040;2023-06-26T10:37:42;29.70;37.40
77865;DHT22;67061;48.524;9.040;2023-06-26T10:40:12;29.70;37.50
77865;DHT22;67061;48.524;9.040;2023-06-26T10:42:40;29.90;37.00
77865;DHT22;67061;48.524;9.040;2023-06-26T10:45:13;30.10;36.60
77865;DHT22;67061;48.524;9.040;2023-06-26T10:47:41;30.10;36.70
77865;DHT22;67061;48.524;9.040;2023-06-26T10:50:20;30.00;37.00
77865;DHT22;67061;48.524;9.040;2023-06-26T10:53:07;29.90;36.80
77865;DHT22;67061;48.524;9.040;2023-06-26T10:55:35;29.70;38.10
77865;DHT22;67061;48.524;9.040;2023-06-26T10:58:02;29.70;38.20
77865;DHT22;67061;48.524;9.040;2023-06-26T11:00:29;29.90;38.80
77865;DHT22;67061;48.524;9.040;2023-06-26T11:02:56;29.90;38.40
77865;DHT22;67061;48.524;9.040;2023-06-26T11:05:26;29.90;39.30
77865;DHT22;67061;48.524;9.040;2023-06-26T11:08:03;29.80;39.70
77865;DHT22;67061;48.524;9.040;2023-06-26T11:10:48;29.90;40.10
77865;DHT22;67061;48.524;9.040;2023-06-26T11:13:17;30.00;39.10
77865;DHT22;67061;48.524;9.040;2023-06-26T11:15:45;30.00;39.00
77865;DHT22;67061;48.524;9.040;2023-06-26T11:18:12;30.00;39.50
77865;DHT22;67061;48.524;9.040;2023-06-26T11:20:41;30.00;39.90
77865;DHT22;67061;48.524;9.040;2023-06-26T11:23:08;29.90;40.60
77865;DHT22;67061;48.524;9.040;2023-06-26T11:25:37;29.90;41.00
77865;DHT22;67061;48.524;9.040;2023-06-26T11:28:05;29.90;40.80
77865;DHT22;67061;48.524;9.040;2023-06-26T11:30:32;30.00;40.90
77865;DHT22;67061;48.524;9.040;2023-06-26T11:33:06;30.30;39.90
77865;DHT22;67061;48.524;9.040;2023-06-26T11:35:33;30.30;39.30
77865;DHT22;67061;48.524;9.040;2023-06-26T11:38:03;30.30;39.50
77865;DHT22;67061;48.524;9.040;2023-06-26T11:40:31;30.30;38.90
77865;DHT22;67061;48.524;9.040;2023-06-26T11:42:59;30.10;38.80
77865;DHT22;67061;48.524;9.040;2023-06-26T11:45:27;30.10;40.00
77865;DHT22;67061;48.524;9.040;2023-06-26T11:47:55;30.30;39.10
77865;DHT22;67061;48.524;9.040;2023-06-26T11:50:22;30.50;39.60
77865;DHT22;67061;48.524;9.040;2023-06-26T11:52:53;30.60;39.40
77865;DHT22;67061;48.524;9.040;2023-06-26T11:55:22;30.80;39.00
77865;DHT22;67061;48.524;9.040;2023-06-26T11:57:49;30.80;37.90
77865;DHT22;67061;48.524;9.040;2023-06-26T12:00:16;30.70;38.90
77865;DHT22;67061;48.524;9.040;2023-06-26T12:02:44;30.70;39.10
77865;DHT22;67061;48.524;9.040;2023-06-26T12:05:12;30.80;37.50
77865;DHT22;67061;48.524;9.040;2023-06-26T12:07:41;30.50;38.50
77865;DHT22;67061;48.524;9.040;2023-06-26T12:10:10;30.20;37.80
77865;DHT22;67061;48.524;9.040;2023-06-26T12:12:39;30.00;39.50
77865;DHT22;67061;48.524;9.040;2023-06-26T12:15:08;29.90;40.30
77865;DHT22;67061;48.524;9.040;2023-06-26T12:17:37;29.90;39.20
77865;DHT22;67061;48.524;9.040;2023-06-26T12:20:16;30.00;40.00
77865;DHT22;67061;48.524;9.040;2023-06-26T12:22:45;30.20;38.60
77865;DHT22;67061;48.524;9.040;2023-06-26T12:25:12;30.30;39.00
77865;DHT22;67061;48.524;9.040;2023-06-26T12:27:40;30.20;38.60
77865;DHT22;67061;48.524;9.040;2023-06-26T12:30:08;30.20;39.80
77865;DHT22;67061;48.524;9.040;2023-06-26T12:32:35;30.30;39.80
77865;DHT22;67061;48.524;9.040;2023-06-26T12:35:02;30.30;40.10
77865;DHT22;67061;48.524;9.040;2023-06-26T12:37:29;30.40;40.00
77865;DHT22;67061;48.524;9.040;2023-06-26T12:40:03;30.30;39.80
77865;DHT22;67061;48.524;9.040;2023-06-26T12:54:54;30.20;41.90
77865;DHT22;67061;48.524;9.040;2023-06-26T12:57:21;30.00;41.20
77865;DHT22;67061;48.524;9.040;2023-06-26T12:59:48;29.90;41.50
77865;DHT22;67061;48.524;9.040;2023-06-26T13:02:15;29.70;42.50
77865;DHT22;67061;48.524;9.040;2023-06-26T13:04:42;30.00;42.20
77865;DHT22;67061;48.524;9.040;2023-06-26T13:07:10;30.00;42.50
77865;DHT22;67061;48.524;9.040;2023-06-26T13:09:37;30.00;42.20
77865;DHT22;67061;48.524;9.040;2023-06-26T13:12:08;30.00;42.00
77865;DHT22;67061;48.524;9.040;2023-06-26T13:14:35;30.10;42.20
77865;DHT22;67061;48.524;9.040;2023-06-26T13:17:02;30.20;42.10
77865;DHT22;67061;48.524;9.040;2023-06-26T13:19:29;30.10;42.00
77865;DHT22;67061;48.524;9.040;2023-06-26T13:21:57;30.10;42.30
77865;DHT22;67061;48.524;9.040;2023-06-26T13:24:26;30.10;42.90
77865;DHT22;67061;48.524;9.040;2023-06-26T13:26:52;30.10;42.00
77865;DHT22;67061;48.524;9.040;2023-06-26T13:29:21;29.80;42.60
77865;DHT22;67061;48.524;9.040;2023-06-26T13:31:48;29.90;42.50
77865;DHT22;67061;48.524;9.040;2023-06-26T13:34:21;30.00;42.20
77865;DHT22;67061;48.524;9.040;2023-06-26T13:36:49;30.00;42.50
77865;DHT22;67061;48.524;9.040;2023-06-26T13:39:15;29.90;41.30
77865;DHT22;67061;48.524;9.040;2023-06-26T13:41:42;29.80;42.50
77865;DHT22;67061;48.524;9.040;2023-06-26T13:44:09;29.70;42.10
77865;DHT22;67061;48.524;9.040;2023-06-26T13:46:38;29.60;42.50
77865;DHT22;67061;48.524;9.040;2023-06-26T13:49:04;29.70;42.20
77865;DHT22;67061;48.524;9.040;2023-06-26T13:51:31;29.60;42.30
77865;DHT22;67061;48.524;9.040;2023-06-26T13:53:58;29.70;42.90
77865;DHT22;67061;48.524;9.040;2023-06-26T13:56:26;29.50;42.70
77865;DHT22;67061;48.524;9.040;2023-06-26T13:58:56;29.50;42.50
77865;DHT22;67061;48.524;9.040;2023-06-26T14:01:23;29.50;41.80
77865;DHT22;67061;48.524;9.040;2023-06-26T14:03:52;29.30;42.30
77865;DHT22;67061;48.524;9.040;2023-06-26T14:06:19;29.20;43.60
77865;DHT22;67061;48.524;9.040;2023-06-26T14:08:46;29.40;42.60
77865;DHT22;67061;48.524;9.040;2023-06-26T14:11:12;29.60;42.90
77865;DHT22;67061;48.524;9.040;2023-06-26T14:13:41;29.70;41.50
77865;DHT22;67061;48.524;9.040;2023-06-26T14:16:08;29.50;41.50
77865;DHT22;67061;48.524;9.040;2023-06-26T14:18:35;29.60;41.40
77865;DHT22;67061;48.524;9.040;2023-06-26T14:21:03;29.60;42.20
77865;DHT22;67061;48.524;9.040;2023-06-26T14:23:30;29.50;41.70
77865;DHT22;67061;48.524;9.040;2023-06-26T14:25:57;29.70;42.20
77865;DHT22;67061;48.524;9.040;2023-06-26T14:28:24;29.60;39.90
77865;DHT22;67061;48.524;9.040;2023-06-26T14:30:51;29.60;39.70
77865;DHT22;67061;48.524;9.040;2023-06-26T14:33:18;29.70;38.90
77865;DHT22;67061;48.524;9.040;2023-06-26T14:35:44;29.70;38.70
77865;DHT22;67061;48.524;9.040;2023-06-26T14:38:13;29.70;39.40
77865;DHT22;67061;48.524;9.040;2023-06-26T14:40:39;29.70;39.90
77865;DHT22;67061;48.524;9.040;2023-06-26T14:43:06;29.70;39.80
77865;DHT22;67061;48.524;9.040;2023-06-26T14:45:33;29.50;40.00
77865;DHT22;67061;48.524;9.040;2023-06-26T14:48:00;29.50;40.00
77865;DHT22;67061;48.524;9.040;2023-06-26T14:50:27;29.40;39.80
77865;DHT22;67061;48.524;9.040;2023-06-26T14:52:54;29.40;39.70
77865;DHT22;67061;48.524;9.040;2023-06-26T14:55:22;29.40;40.10
77865;DHT22;67061;48.524;9.040;2023-06-26T14:57:49;29.30;39.70
77865;DHT22;67061;48.524;9.040;2023-06-26T15:00:16;29.30;39.90
77865;DHT22;67061;48.524;9.040;2023-06-26T15:02:43;29.40;39.70
77865;DHT22;67061;48.524;9.040;2023-06-26T15:05:10;29.30;38.90
77865;DHT22;67061;48.524;9.040;2023-06-26T15:07:37;29.30;39.20
77865;DHT22;67061;48.524;9.040;2023-06-26T15:10:05;29.40;38.90
77865;DHT22;67061;48.524;9.040;2023-06-26T15:12:34;29.30;39.20
77865;DHT22;67061;48.524;9.040;2023-06-26T15:15:00;29.30;39.80
77865;DHT22;67061;48.524;9.040;2023-06-26T15:17:27;29.40;39.50
77865;DHT22;67061;48.524;9.040;2023-06-26T15:19:54;29.10;39.70
77865;DHT22;67061;48.524;9.040;2023-06-26T15:22:22;28.90;40.20
77865;DHT22;67061;48.524;9.040;2023-06-26T15:24:49;28.90;40.10
77865;DHT22;67061;48.524;9.040;2023-06-26T15:27:16;28.90;40.20
77865;DHT22;67061;48.524;9.040;2023-06-26T15:29:44;28.90;40.20
77865;DHT22;67061;48.524;9.040;2023-06-26T15:32:11;28.90;40.10
77865;DHT22;67061;48.524;9.040;2023-06-26T15:34:38;28.90;40.70
77865;DHT22;67061;48.524;9.040;2023-06-26T15:37:05;28.70;40.80
77865;DHT22;67061;48.524;9.040;2023-06-26T15:39:32;28.60;41.40
77865;DHT22;67061;48.524;9.040;2023-06-26T15:41:59;28.60;40.40
77865;DHT22;67061;48.524;9.040;2023-06-26T15:44:25;28.60;40.90
77865;DHT22;67061;48.524;9.040;2023-06-26T15:46:54;28.50;41.50